createdAt,value
2023-03-31T00:01:04.715Z,8.90
2023-03-31T00:04:13.329Z,18.38
2023-03-31T00:07:17.620Z,9.60
2023-03-31T00:10:22.453Z,8.55
2023-03-31T00:13:26.080Z,11.05
2023-03-31T00:16:31.943Z,7.93
2023-03-31T00:19:52.423Z,7.60
2023-03-31T00:22:58.183Z,10.15
2023-03-31T00:26:02.606Z,8.95
2023-03-31T00:29:08.421Z,7.18
2023-03-31T00:32:14.615Z,7.82
2023-03-31T00:35:21.588Z,13.90
2023-03-31T00:38:29.143Z,9.82
2023-03-31T00:41:39.057Z,8.57
2023-03-31T00:45:04.694Z,9.77
2023-03-31T00:48:13.478Z,9.02
2023-03-31T00:51:19.945Z,6.78
2023-03-31T00:54:25.813Z,10.80
2023-03-31T00:57:32.702Z,4.97
2023-03-31T01:00:41.525Z,3.97
2023-03-31T01:03:47.346Z,8.40
2023-03-31T01:07:01.054Z,14.50
2023-03-31T01:10:09.266Z,7.85
2023-03-31T01:13:16.284Z,15.40
2023-03-31T01:16:24.437Z,13.32
2023-03-31T01:19:37.110Z,7.40
2023-03-31T01:22:54.552Z,11.05
2023-03-31T01:26:33.628Z,6.05
2023-03-31T01:30:02.991Z,11.32
2023-03-31T01:33:19.146Z,7.90
2023-03-31T01:36:39.320Z,6.28
2023-03-31T01:40:08.676Z,7.20
2023-03-31T01:43:20.382Z,5.95
2023-03-31T01:46:33.395Z,5.28
2023-03-31T01:49:44.112Z,8.18
2023-03-31T01:52:54.268Z,10.70
2023-03-31T01:56:02.860Z,6.35
2023-03-31T01:59:16.888Z,6.18
2023-03-31T02:02:23.866Z,6.53
2023-03-31T02:05:28.740Z,10.70
2023-03-31T02:08:38.372Z,9.43
2023-03-31T02:11:44.254Z,4.22
2023-03-31T02:14:55.503Z,9.40
2023-03-31T02:18:00.655Z,6.20
2023-03-31T02:21:11.846Z,8.57
2023-03-31T02:24:18.015Z,10.65
2023-03-31T02:27:24.443Z,10.25
2023-03-31T02:30:32.721Z,8.73
2023-03-31T02:33:36.340Z,8.68
2023-03-31T02:36:44.696Z,6.57
2023-03-31T02:39:55.738Z,8.18
2023-03-31T02:43:03.903Z,11.27
2023-03-31T02:46:12.222Z,6.20
2023-03-31T02:49:17.856Z,7.07
2023-03-31T02:52:44.746Z,9.90
2023-03-31T02:56:00.655Z,9.70
2023-03-31T02:59:10.548Z,5.45
2023-03-31T03:02:21.172Z,9.77
2023-03-31T03:05:34.792Z,10.55
2023-03-31T03:09:18.569Z,7.22
2023-03-31T03:12:26.778Z,8.50
2023-03-31T03:15:32.430Z,11.75
2023-03-31T03:18:39.080Z,4.43
2023-03-31T03:21:44.141Z,5.78
2023-03-31T03:24:48.324Z,7.47
2023-03-31T03:27:53.890Z,6.88
2023-03-31T03:31:00.033Z,7.63
2023-03-31T03:34:09.499Z,6.07
2023-03-31T03:37:15.078Z,5.35
2023-03-31T03:40:19.716Z,10.57
2023-03-31T03:43:23.091Z,4.30
2023-03-31T03:46:26.864Z,16.77
2023-03-31T03:49:32.812Z,6.68
2023-03-31T03:52:36.198Z,12.13
2023-03-31T03:55:40.386Z,8.13
2023-03-31T03:58:45.028Z,8.77
2023-03-31T04:01:49.195Z,7.75
2023-03-31T04:04:54.273Z,5.70
2023-03-31T04:08:00.367Z,10.60
2023-03-31T04:11:05.480Z,5.85
2023-03-31T04:14:11.523Z,8.18
2023-03-31T04:17:18.469Z,5.32
2023-03-31T04:20:28.058Z,9.18
2023-03-31T04:23:31.879Z,9.23
2023-03-31T04:26:51.004Z,7.28
2023-03-31T04:29:55.669Z,8.40
2023-03-31T04:33:02.502Z,12.20
2023-03-31T04:36:17.905Z,10.07
2023-03-31T04:39:26.990Z,8.40
2023-03-31T04:42:31.650Z,8.02
2023-03-31T04:45:36.611Z,8.93
2023-03-31T04:48:43.813Z,11.38
2023-03-31T04:51:50.849Z,13.20
2023-03-31T04:54:55.278Z,8.88
2023-03-31T04:58:01.049Z,6.90
2023-03-31T05:01:06.805Z,10.90
2023-03-31T05:04:12.779Z,6.57
2023-03-31T05:07:20.702Z,10.55
2023-03-31T05:10:25.279Z,14.02
2023-03-31T05:13:28.649Z,11.63
2023-03-31T05:16:33.992Z,15.30
2023-03-31T05:19:38.732Z,10.55
2023-03-31T05:22:44.195Z,10.65
2023-03-31T05:25:49.383Z,10.57
2023-03-31T05:28:54.256Z,9.73
2023-03-31T05:31:58.081Z,6.45
2023-03-31T05:35:02.412Z,8.82
2023-03-31T05:38:07.849Z,13.90
2023-03-31T05:41:15.742Z,10.68
2023-03-31T05:44:22.885Z,11.27
2023-03-31T05:47:27.695Z,10.57
2023-03-31T05:50:32.382Z,5.55
2023-03-31T05:53:38.410Z,10.88
2023-03-31T05:56:43.777Z,9.57
2023-03-31T05:59:48.592Z,7.80
2023-03-31T06:02:52.939Z,10.25
2023-03-31T06:05:58.911Z,12.43
2023-03-31T06:09:03.987Z,9.82
2023-03-31T06:12:11.632Z,10.45
2023-03-31T06:15:16.245Z,15.70
2023-03-31T06:18:21.776Z,14.93
2023-03-31T06:21:32.725Z,7.63
2023-03-31T06:24:38.412Z,10.05
2023-03-31T06:27:42.070Z,9.50
2023-03-31T06:30:46.281Z,5.43
2023-03-31T06:33:50.084Z,5.32
2023-03-31T06:36:53.490Z,11.63
2023-03-31T06:39:59.732Z,5.63
2023-03-31T06:43:03.336Z,8.32
2023-03-31T06:46:08.540Z,5.13
2023-03-31T06:49:13.724Z,8.13
2023-03-31T06:52:18.349Z,8.88
2023-03-31T06:55:23.443Z,8.13
2023-03-31T06:58:29.800Z,5.82
2023-03-31T07:01:37.492Z,7.50
2023-03-31T07:04:41.694Z,6.70
2023-03-31T07:07:46.596Z,10.05
2023-03-31T07:10:52.098Z,8.88
2023-03-31T07:13:57.418Z,4.70
2023-03-31T07:17:02.128Z,9.77
2023-03-31T07:20:12.684Z,3.00
2023-03-31T07:23:16.551Z,4.40
2023-03-31T07:26:24.393Z,10.80
2023-03-31T07:29:30.048Z,8.05
2023-03-31T07:32:39.509Z,6.60
2023-03-31T07:35:43.921Z,5.70
2023-03-31T07:38:49.979Z,10.65
2023-03-31T07:41:55.032Z,6.38
2023-03-31T07:44:58.635Z,3.47
2023-03-31T07:48:02.777Z,2.88
2023-03-31T07:51:07.331Z,6.20
2023-03-31T07:54:17.849Z,4.70
2023-03-31T07:57:23.424Z,6.95
2023-03-31T08:00:28.253Z,4.63
2023-03-31T08:03:32.496Z,5.40
2023-03-31T08:06:36.666Z,4.90
2023-03-31T08:09:41.079Z,3.90
2023-03-31T08:12:46.137Z,10.20
2023-03-31T08:15:54.961Z,2.85
2023-03-31T08:19:00.031Z,7.63
2023-03-31T08:22:05.185Z,3.40
2023-03-31T08:25:11.254Z,4.38
2023-03-31T08:28:19.941Z,3.92
2023-03-31T08:31:27.402Z,5.25
2023-03-31T08:34:31.596Z,3.75
2023-03-31T08:37:40.004Z,2.17
2023-03-31T08:40:47.432Z,2.05
2023-03-31T08:43:52.612Z,4.00
2023-03-31T08:46:58.729Z,6.15
2023-03-31T08:50:05.000Z,8.40
2023-03-31T08:53:11.153Z,4.70
2023-03-31T08:56:17.939Z,8.07
2023-03-31T08:59:29.153Z,5.45
2023-03-31T09:02:36.581Z,4.03
2023-03-31T09:05:59.317Z,5.18
2023-03-31T09:09:05.060Z,6.40
2023-03-31T09:12:13.076Z,3.88
2023-03-31T09:15:25.133Z,7.25
2023-03-31T09:18:31.078Z,12.38
2023-03-31T09:21:40.787Z,5.22
2023-03-31T09:24:49.777Z,1.97
2023-03-31T09:27:55.064Z,7.00
2023-03-31T09:31:06.951Z,3.88
2023-03-31T09:34:16.414Z,7.50
2023-03-31T09:37:20.406Z,4.57
2023-03-31T09:40:32.923Z,4.57
2023-03-31T09:43:38.487Z,2.92
2023-03-31T09:46:44.854Z,2.60
2023-03-31T09:49:54.421Z,6.85
2023-03-31T09:53:01.218Z,2.40
2023-03-31T09:56:06.246Z,5.55
2023-03-31T09:59:16.073Z,7.93
2023-03-31T10:02:30.221Z,3.45
2023-03-31T10:05:36.288Z,2.22
2023-03-31T10:08:41.773Z,4.93
2023-03-31T10:11:55.716Z,4.38
2023-03-31T10:15:20.961Z,3.50
2023-03-31T10:18:34.430Z,3.30
2023-03-31T10:21:39.622Z,1.30
2023-03-31T10:24:45.224Z,2.72
2023-03-31T10:27:50.246Z,3.80
2023-03-31T10:30:56.733Z,1.70
2023-03-31T10:34:06.727Z,0.98
2023-03-31T10:37:12.527Z,2.70
2023-03-31T10:40:17.245Z,2.38
2023-03-31T10:43:24.131Z,1.67
2023-03-31T10:46:42.722Z,3.17
2023-03-31T10:49:50.949Z,2.63
2023-03-31T10:53:02.229Z,2.65
2023-03-31T10:56:11.011Z,1.67
2023-03-31T10:59:26.166Z,1.88
2023-03-31T11:02:51.635Z,2.03
2023-03-31T11:06:02.584Z,3.10
2023-03-31T11:09:14.479Z,1.08
2023-03-31T11:12:24.057Z,1.73
2023-03-31T11:15:32.174Z,2.75
2023-03-31T11:18:48.445Z,1.63
2023-03-31T11:21:58.998Z,4.93
2023-03-31T11:25:15.864Z,1.50
2023-03-31T11:28:26.458Z,3.65
2023-03-31T11:31:34.963Z,2.33
2023-03-31T11:34:54.466Z,5.57
2023-03-31T11:38:04.587Z,2.42
2023-03-31T11:41:11.961Z,3.13
2023-03-31T11:44:17.568Z,3.30
2023-03-31T11:47:23.588Z,4.03
2023-03-31T11:50:28.471Z,6.15
2023-03-31T11:53:35.451Z,3.25
2023-03-31T11:56:40.093Z,0.95
2023-03-31T11:59:45.631Z,2.70
2023-03-31T12:02:52.942Z,1.40
2023-03-31T12:06:00.327Z,3.38
2023-03-31T12:09:07.812Z,2.45
2023-03-31T12:12:17.102Z,3.55
2023-03-31T12:15:22.987Z,3.55
2023-03-31T12:18:28.466Z,4.65
2023-03-31T12:21:33.738Z,3.25
2023-03-31T12:24:38.867Z,4.65
2023-03-31T12:27:43.372Z,1.52
2023-03-31T12:30:50.913Z,2.17
2023-03-31T12:33:57.695Z,2.80
2023-03-31T12:37:10.792Z,1.02
2023-03-31T12:40:19.496Z,1.23
2023-03-31T12:43:29.158Z,1.88
2023-03-31T12:46:47.272Z,1.70
2023-03-31T12:50:02.961Z,3.42
2023-03-31T12:53:12.657Z,1.08
2023-03-31T12:56:17.791Z,3.80
2023-03-31T12:59:28.801Z,4.25
2023-03-31T13:02:33.025Z,2.05
2023-03-31T13:05:48.356Z,2.10
2023-03-31T13:08:54.996Z,1.70
2023-03-31T13:12:00.125Z,5.28
2023-03-31T13:15:11.305Z,2.60
2023-03-31T13:18:20.662Z,3.80
2023-03-31T13:21:24.968Z,8.43
2023-03-31T13:24:29.134Z,3.10
2023-03-31T13:27:35.807Z,2.20
2023-03-31T13:30:50.997Z,1.98
2023-03-31T13:33:58.604Z,5.93
2023-03-31T13:37:12.838Z,3.65
2023-03-31T13:40:24.847Z,1.05
2023-03-31T13:43:41.153Z,2.22
2023-03-31T13:46:53.855Z,1.83
2023-03-31T13:50:07.778Z,4.25
2023-03-31T13:53:25.380Z,2.08
2023-03-31T13:56:36.452Z,1.52
2023-03-31T13:59:50.796Z,3.80
2023-03-31T14:03:09.330Z,3.70
2023-03-31T14:06:21.695Z,2.13
2023-03-31T14:09:27.853Z,2.80
2023-03-31T14:12:35.740Z,1.17
2023-03-31T14:15:42.493Z,1.10
2023-03-31T14:18:51.418Z,1.17
2023-03-31T14:22:01.293Z,3.88
2023-03-31T14:25:09.898Z,1.80
2023-03-31T14:28:23.166Z,1.23
2023-03-31T14:31:35.478Z,2.97
2023-03-31T14:34:49.845Z,0.50
2023-03-31T14:37:55.862Z,1.42
2023-03-31T14:41:01.112Z,4.18
2023-03-31T14:44:07.380Z,2.58
2023-03-31T14:47:15.539Z,2.22
2023-03-31T14:50:20.368Z,1.25
2023-03-31T14:53:26.444Z,3.58
2023-03-31T14:56:37.395Z,1.52
2023-03-31T14:59:41.166Z,2.15
2023-03-31T15:02:47.081Z,1.92
2023-03-31T15:05:50.765Z,1.55
2023-03-31T15:08:57.786Z,1.95
2023-03-31T15:12:02.248Z,2.13
2023-03-31T15:15:08.107Z,3.40
2023-03-31T15:18:16.518Z,1.13
2023-03-31T15:21:22.982Z,3.50
2023-03-31T15:24:26.393Z,5.00
2023-03-31T15:27:37.056Z,4.57
2023-03-31T15:30:42.501Z,5.15
2023-03-31T15:33:48.629Z,5.60
2023-03-31T15:36:52.181Z,1.17
2023-03-31T15:39:57.110Z,4.05
2023-03-31T15:43:24.393Z,1.25
2023-03-31T15:46:50.566Z,1.70
2023-03-31T15:49:56.472Z,3.53
2023-03-31T15:53:01.307Z,1.75
2023-03-31T15:56:05.204Z,1.08
2023-03-31T15:59:08.828Z,1.55
2023-03-31T16:02:14.161Z,2.25
2023-03-31T16:05:34.318Z,0.70
2023-03-31T16:08:44.732Z,1.20
2023-03-31T16:11:53.758Z,0.93
2023-03-31T16:14:59.653Z,0.90
2023-03-31T16:18:06.443Z,1.48
2023-03-31T16:21:13.757Z,2.55
2023-03-31T16:24:21.455Z,1.95
2023-03-31T16:27:25.596Z,1.92
2023-03-31T16:30:37.212Z,1.00
2023-03-31T16:33:54.552Z,2.92
2023-03-31T16:36:59.613Z,0.95
2023-03-31T16:40:05.130Z,2.58
2023-03-31T16:43:09.538Z,5.18
2023-03-31T16:46:13.895Z,4.15
2023-03-31T16:49:17.581Z,2.60
2023-03-31T16:52:22.607Z,4.97
2023-03-31T16:55:28.014Z,2.25
2023-03-31T16:58:34.700Z,2.80
2023-03-31T17:01:41.239Z,2.90
2023-03-31T17:04:44.996Z,11.02
2023-03-31T17:07:50.346Z,11.48
2023-03-31T17:10:55.240Z,11.50
2023-03-31T17:14:00.181Z,9.75
2023-03-31T17:17:17.320Z,4.72
2023-03-31T17:20:21.837Z,3.75
2023-03-31T17:23:27.412Z,3.47
2023-03-31T17:26:30.968Z,2.08
2023-03-31T17:29:41.840Z,2.08
2023-03-31T17:32:50.635Z,2.40
2023-03-31T17:35:58.546Z,4.07
2023-03-31T17:39:04.885Z,2.08
2023-03-31T17:42:08.613Z,4.15
2023-03-31T17:45:14.268Z,2.70
2023-03-31T17:48:17.905Z,1.48
2023-03-31T17:51:24.930Z,1.27
2023-03-31T17:54:30.657Z,1.35
2023-03-31T17:57:36.592Z,2.10
2023-03-31T18:00:41.271Z,7.57
2023-03-31T18:03:48.009Z,4.57
2023-03-31T18:06:54.951Z,3.72
2023-03-31T18:10:00.297Z,4.00
2023-03-31T18:13:03.762Z,3.95
2023-03-31T18:16:12.796Z,1.88
2023-03-31T18:19:16.768Z,2.35
2023-03-31T18:22:20.648Z,1.25
2023-03-31T18:25:26.884Z,5.18
2023-03-31T18:28:30.348Z,1.95
2023-03-31T18:31:33.920Z,2.40
2023-03-31T18:34:38.161Z,3.45
2023-03-31T18:37:41.859Z,3.25
2023-03-31T18:40:50.687Z,3.97
2023-03-31T18:43:55.082Z,3.88
2023-03-31T18:46:58.868Z,2.08
2023-03-31T18:50:03.252Z,1.67
2023-03-31T18:53:06.850Z,3.00
2023-03-31T18:56:13.050Z,2.25
2023-03-31T18:59:19.730Z,3.58
2023-03-31T19:02:23.514Z,2.70
2023-03-31T19:05:27.604Z,2.22
2023-03-31T19:08:36.464Z,2.72
2023-03-31T19:11:41.716Z,4.30
2023-03-31T19:14:45.493Z,4.03
2023-03-31T19:17:49.082Z,3.10
2023-03-31T19:20:55.457Z,2.10
2023-03-31T19:24:17.680Z,1.35
2023-03-31T19:27:23.093Z,1.95
2023-03-31T19:30:31.399Z,2.08
2023-03-31T19:33:35.016Z,2.75
2023-03-31T19:36:46.182Z,6.07
2023-03-31T19:39:50.436Z,3.00
2023-03-31T19:42:55.941Z,3.40
2023-03-31T19:46:03.117Z,2.90
2023-03-31T19:49:07.240Z,2.35
2023-03-31T19:52:13.912Z,1.90
2023-03-31T19:55:21.056Z,2.25
2023-03-31T19:58:26.639Z,6.38
2023-03-31T20:01:30.209Z,3.78
2023-03-31T20:04:34.123Z,2.13
2023-03-31T20:07:39.523Z,2.70
2023-03-31T20:10:43.471Z,2.08
2023-03-31T20:13:49.160Z,6.00
2023-03-31T20:16:52.990Z,4.22
2023-03-31T20:19:57.400Z,3.70
2023-03-31T20:23:01.035Z,2.17
2023-03-31T20:26:05.110Z,3.20
2023-03-31T20:29:10.356Z,2.80
2023-03-31T20:32:17.350Z,2.97
2023-03-31T20:35:21.093Z,2.55
2023-03-31T20:38:26.429Z,5.70
2023-03-31T20:41:31.694Z,3.35
2023-03-31T20:44:36.999Z,2.55
2023-03-31T20:47:41.455Z,4.03
2023-03-31T20:50:46.214Z,3.45
2023-03-31T20:53:50.738Z,2.90
2023-03-31T20:56:54.381Z,6.57
2023-03-31T21:00:02.129Z,3.38
2023-03-31T21:03:07.618Z,3.72
2023-03-31T21:06:12.472Z,4.30
2023-03-31T21:09:16.476Z,5.18
2023-03-31T21:12:20.479Z,3.22
2023-03-31T21:15:25.548Z,7.30
2023-03-31T21:18:29.932Z,7.20
2023-03-31T21:21:35.729Z,10.95
2023-03-31T21:24:39.433Z,7.45
2023-03-31T21:27:44.654Z,5.32
2023-03-31T21:30:53.912Z,6.25
2023-03-31T21:33:58.955Z,5.22
2023-03-31T21:37:05.088Z,3.70
2023-03-31T21:40:09.280Z,3.80
2023-03-31T21:43:13.247Z,2.50
2023-03-31T21:46:18.835Z,2.58
2023-03-31T21:49:23.760Z,2.88
2023-03-31T21:52:27.947Z,3.58
2023-03-31T21:55:31.859Z,6.00
2023-03-31T21:58:36.936Z,4.18
2023-03-31T22:01:44.959Z,6.40
2023-03-31T22:04:49.929Z,7.97
2023-03-31T22:07:53.585Z,7.03
2023-03-31T22:10:59.886Z,5.00
2023-03-31T22:14:04.382Z,3.60
2023-03-31T22:17:09.458Z,4.53
2023-03-31T22:20:13.832Z,4.65
2023-03-31T22:23:20.244Z,2.95
2023-03-31T22:26:27.050Z,2.58
2023-03-31T22:29:30.966Z,3.55
2023-03-31T22:32:36.351Z,4.75
2023-03-31T22:35:40.000Z,4.43
2023-03-31T22:38:44.781Z,4.10
2023-03-31T22:41:50.049Z,4.60
2023-03-31T22:44:54.803Z,4.53
2023-03-31T22:48:19.857Z,7.15
2023-03-31T22:51:23.539Z,3.92
2023-03-31T22:54:40.022Z,7.82
2023-03-31T22:57:44.695Z,6.95
2023-03-31T23:00:56.247Z,2.88
2023-03-31T23:04:04.462Z,5.55
2023-03-31T23:07:08.316Z,4.18
2023-03-31T23:10:12.196Z,4.80
2023-03-31T23:13:16.227Z,2.70
2023-03-31T23:16:21.422Z,5.35
2023-03-31T23:19:26.868Z,7.70
2023-03-31T23:22:30.489Z,4.13
2023-03-31T23:25:35.408Z,5.72
2023-03-31T23:28:39.561Z,6.93
2023-03-31T23:31:43.460Z,4.45
2023-03-31T23:34:48.452Z,3.08
2023-03-31T23:37:51.976Z,2.78
2023-03-31T23:40:55.693Z,4.65
2023-03-31T23:43:59.393Z,7.97
2023-03-31T23:47:05.226Z,4.25
2023-03-31T23:50:11.957Z,4.05
2023-03-31T23:53:19.284Z,5.40
2023-03-31T23:56:25.498Z,4.15
2023-03-31T23:59:29.238Z,3.45
